Time;durP1;ratioP1;P1;durP2;ratioP2;P2;SDS_P1;SDS_P2;PMS_P1;PMS_P2;Temp;Humidity;BMP_temperature;BMP_pressure;BME280_temperature;BME280_humidity;BME280_pressure;Samples;Min_cycle;Max_cycle;Signal;HPM_P1;HPM_P2
2022/02/27 00:00:41;;;;;;;;;;;;;;;6.41;40.79;101116.38;4444407;32;33716;-81
2022/02/27 00:03:09;;;;;;;;;;;;;;;6.11;41.49;101102.22;4431611;32;33044;-80
2022/02/27 00:05:36;;;;;;;;;;;;;;;6.37;41.24;101109.56;4428919;32;33615;-80
2022/02/27 00:08:03;;;;;;;;;;;;;;;6.48;40.46;101097.47;4438993;32;35235;-80
2022/02/27 00:10:31;;;;;;;;;;;;;;;6.18;41.37;101093.03;4448804;32;33972;-80
2022/02/27 00:12:59;;;;;;;;;;;;;;;6.27;41.37;101090.75;4436054;32;34247;-80
2022/02/27 00:15:26;;;;;;;;;;;;;;;6.32;40.94;101091.31;4396406;32;34435;-80
2022/02/27 00:17:54;;;;;;;;;;;;;;;6.25;41.36;101099.69;4430264;32;34086;-80
2022/02/27 00:20:22;;;;;;;;;;;;;;;6.29;41.31;101082.72;4416065;32;34002;-80
2022/02/27 00:22:49;;;;;;;;;;;;;;;6.14;41.16;101092.34;4402915;32;32920;-81
2022/02/27 00:25:17;;;;;;;;;;;;;;;6.21;41.44;101095.50;4416020;32;34401;-80
2022/02/27 00:27:44;;;;;;;;;;;;;;;6.21;41.33;101082.28;4416263;32;34248;-80
2022/02/27 00:30:12;;;;;;;;;;;;;;;6.01;41.82;101085.19;4403054;32;32478;-80
2022/02/27 00:32:40;;;;;;;;;;;;;;;6.12;41.66;101082.81;4403015;32;32410;-80
2022/02/27 00:35:09;;;;;;;;;;;;;;;6.57;41.05;101081.06;4415958;32;35299;-80
2022/02/27 00:37:36;;;;;;;;;;;;;;;6.02;41.77;101085.13;4416161;32;34611;-80
2022/02/27 00:40:05;;;;;;;;;;;;;;;6.01;42.40;101086.06;4416312;32;33380;-80
2022/02/27 00:42:32;;;;;;;;;;;;;;;5.72;42.70;101083.25;4416101;32;34697;-80
2022/02/27 00:45:00;;;;;;;;;;;;;;;5.70;42.77;101077.22;4402950;32;35183;-80
2022/02/27 00:47:28;;;;;;;;;;;;;;;5.75;42.79;101083.94;4415218;32;34549;-80
2022/02/27 00:49:56;;;;;;;;;;;;;;;5.50;43.31;101083.53;4403234;32;31501;-80
2022/02/27 00:52:24;;;;;;;;;;;;;;;5.80;43.09;101084.56;4415969;32;33541;-80
2022/02/27 00:54:53;;;;;;;;;;;;;;;5.68;43.48;101084.37;4416227;32;34492;-80
2022/02/27 00:57:23;;;;;;;;;;;;;;;5.86;42.93;101067.56;4415921;32;34989;-81
2022/02/27 00:59:51;;;;;;;;;;;;;;;5.59;43.77;101067.22;4415866;32;33409;-80
2022/02/27 01:02:19;;;;;;;;;;;;;;;5.98;43.77;101073.00;4415170;32;34279;-80
2022/02/27 01:04:46;;;;;;;;;;;;;;;5.62;43.94;101069.72;4416159;32;34168;-80
2022/02/27 01:07:15;;;;;;;;;;;;;;;5.66;43.92;101067.72;4415558;32;34291;-80
2022/02/27 01:09:43;;;;;;;;;;;;;;;5.72;43.50;101067.41;4416258;32;33899;-80
2022/02/27 01:12:11;;;;;;;;;;;;;;;5.79;43.42;101066.19;4416231;32;35022;-81
2022/02/27 01:14:39;;;;;;;;;;;;;;;5.59;44.54;101066.38;4434253;32;35133;-80
2022/02/27 01:17:06;;;;;;;;;;;;;;;5.61;44.41;101061.88;4430827;32;33353;-80
2022/02/27 01:19:34;;;;;;;;;;;;;;;5.62;44.30;101060.94;4443921;32;33061;-80
2022/02/27 01:22:02;;;;;;;;;;;;;;;5.69;44.15;101065.78;4443695;32;34690;-80
2022/02/27 01:24:34;;;;;;;;;;;;;;;5.79;44.20;101066.19;4443970;32;34036;-80
2022/02/27 01:27:01;;;;;;;;;;;;;;;5.81;43.77;101062.53;4443737;32;34100;-80
2022/02/27 01:29:29;;;;;;;;;;;;;;;5.63;43.91;101074.06;4443632;32;33997;-80
2022/02/27 01:31:57;;;;;;;;;;;;;;;5.61;44.17;101070.63;4456625;32;34469;-80
2022/02/27 01:34:24;;;;;;;;;;;;;;;5.93;43.31;101071.56;4431354;32;34825;-80
2022/02/27 01:36:52;;;;;;;;;;;;;;;6.00;43.50;101075.56;4443766;32;35247;-80
2022/02/27 01:39:20;;;;;;;;;;;;;;;6.08;43.46;101060.16;4443694;32;32746;-80
2022/02/27 01:41:47;;;;;;;;;;;;;;;6.03;43.44;101055.13;4437984;32;32804;-80
2022/02/27 01:44:15;;;;;;;;;;;;;;;5.99;43.83;101060.66;4443985;32;36005;-80
2022/02/27 01:47:00;;;;;;;;;;;;;;;5.72;44.35;101067.41;4443797;32;34262;-80
2022/02/27 01:49:28;;;;;;;;;;;;;;;5.73;44.29;101062.06;4443652;32;34039;-80
2022/02/27 01:52:00;;;;;;;;;;;;;;;5.54;44.65;101057.84;4455802;32;34190;-80
2022/02/27 01:54:29;;;;;;;;;;;;;;;5.74;44.32;101062.91;4443460;32;34941;-80
2022/02/27 01:56:57;;;;;;;;;;;;;;;5.74;44.21;101050.56;4443615;32;35510;-80
2022/02/27 01:59:25;;;;;;;;;;;;;;;5.54;44.88;101053.44;4430967;32;33167;-80
2022/02/27 02:01:53;;;;;;;;;;;;;;;5.80;44.70;101050.25;4443652;32;34509;-80
2022/02/27 02:04:22;;;;;;;;;;;;;;;5.56;44.48;101061.25;4442530;32;35165;-79
2022/02/27 02:06:49;;;;;;;;;;;;;;;5.63;44.46;101052.06;4435242;32;35043;-80
2022/02/27 02:09:17;;;;;;;;;;;;;;;5.97;43.98;101051.97;4443566;32;32816;-80
2022/02/27 02:11:46;;;;;;;;;;;;;;;5.61;44.79;101052.16;4443767;32;34780;-81
2022/02/27 02:14:14;;;;;;;;;;;;;;;5.86;44.49;101044.63;4442745;32;35571;-80
2022/02/27 02:16:44;;;;;;;;;;;;;;;5.75;44.42;101043.47;4433855;32;33057;-80
2022/02/27 02:19:13;;;;;;;;;;;;;;;5.62;44.62;101050.37;4442853;32;33033;-81
2022/02/27 02:21:44;;;;;;;;;;;;;;;5.47;45.21;101048.53;4442884;32;34936;-80
2022/02/27 02:24:14;;;;;;;;;;;;;;;5.62;44.37;101050.37;4443433;32;35047;-80
2022/02/27 02:26:43;;;;;;;;;;;;;;;5.62;44.77;101045.97;4443337;32;34138;-80
2022/02/27 02:29:11;;;;;;;;;;;;;;;5.92;43.91;101048.72;4442845;32;33477;-80
2022/02/27 02:31:39;;;;;;;;;;;;;;;5.83;44.28;101043.94;4455998;32;34937;-80
2022/02/27 02:34:07;;;;;;;;;;;;;;;6.00;44.19;101044.72;4443179;32;34468;-80
2022/02/27 02:36:35;;;;;;;;;;;;;;;5.85;44.29;101042.06;4448685;32;34432;-80
2022/02/27 02:39:05;;;;;;;;;;;;;;;5.90;43.60;101043.53;4443383;32;32720;-81
2022/02/27 02:41:33;;;;;;;;;;;;;;;5.64;44.60;101044.09;4430306;32;33657;-80
2022/02/27 02:44:01;;;;;;;;;;;;;;;5.90;44.54;101043.53;4443013;32;34554;-80
2022/02/27 02:46:33;;;;;;;;;;;;;;;5.82;43.96;101051.03;4443053;32;34297;-79
2022/02/27 02:49:02;;;;;;;;;;;;;;;5.64;44.53;101059.91;4455874;32;32699;-80
2022/02/27 02:51:31;;;;;;;;;;;;;;;5.95;43.72;101048.56;4443300;32;33317;-80
2022/02/27 02:53:58;;;;;;;;;;;;;;;5.90;43.93;101043.53;4442587;32;35193;-79
2022/02/27 02:56:26;;;;;;;;;;;;;;;5.61;44.47;101049.50;4430498;32;33007;-80
2022/02/27 02:58:53;;;;;;;;;;;;;;;5.72;43.96;101052.44;4442889;32;32792;-80
2022/02/27 03:01:22;;;;;;;;;;;;;;;5.76;44.11;101045.19;4442951;32;33357;-80
2022/02/27 03:03:52;;;;;;;;;;;;;;;5.54;44.60;101042.00;4442655;32;35570;-80
2022/02/27 03:06:21;;;;;;;;;;;;;;;5.66;44.25;101042.19;4429965;32;33368;-80
2022/02/27 03:08:48;;;;;;;;;;;;;;;5.48;44.67;101047.59;4429648;32;32879;-80
2022/02/27 03:11:18;;;;;;;;;;;;;;;5.62;44.55;101045.97;4435163;32;34288;-80
2022/02/27 03:13:46;;;;;;;;;;;;;;;5.85;44.01;101035.00;4418296;32;34575;-80
2022/02/27 03:16:13;;;;;;;;;;;;;;;5.65;44.38;101043.16;4418787;32;34018;-80
2022/02/27 03:18:41;;;;;;;;;;;;;;;5.15;45.44;101041.50;4436487;32;33275;-80
2022/02/27 03:21:09;;;;;;;;;;;;;;;5.36;45.00;101040.34;4437410;32;34549;-80
2022/02/27 03:23:36;;;;;;;;;;;;;;;5.55;44.65;101054.28;4433729;32;35638;-80
2022/02/27 03:26:04;;;;;;;;;;;;;;;5.66;44.02;101047.47;4435485;32;34075;-80
2022/02/27 03:28:31;;;;;;;;;;;;;;;5.69;44.54;101047.31;4447653;32;32231;-80
2022/02/27 03:30:59;;;;;;;;;;;;;;;5.41;44.60;101048.03;4422175;32;33564;-80
2022/02/27 03:33:27;;;;;;;;;;;;;;;5.60;45.16;101049.59;4449296;32;36059;-80
2022/02/27 03:35:54;;;;;;;;;;;;;;;5.44;45.26;101048.72;4439502;32;35260;-80
2022/02/27 03:38:22;;;;;;;;;;;;;;;5.53;44.71;101048.22;4449331;32;33108;-80
2022/02/27 03:40:49;;;;;;;;;;;;;;;5.45;44.53;101044.31;4453108;32;34824;-80
2022/02/27 03:43:17;;;;;;;;;;;;;;;5.67;44.19;101048.34;4445993;32;34673;-80
2022/02/27 03:45:45;;;;;;;;;;;;;;;5.38;44.64;101050.84;4444750;32;34493;-80
2022/02/27 03:48:14;;;;;;;;;;;;;;;5.77;43.37;101052.19;4444638;32;34297;-80
2022/02/27 03:50:42;;;;;;;;;;;;;;;5.57;44.48;101049.75;4444469;32;35197;-80
2022/02/27 03:53:09;;;;;;;;;;;;;;;5.79;43.80;101052.97;4444016;32;35006;-80
2022/02/27 03:55:37;;;;;;;;;;;;;;;5.62;44.88;101047.72;4444359;32;35553;-79
2022/02/27 03:58:04;;;;;;;;;;;;;;;5.39;44.38;101058.69;4444321;32;33805;-80
2022/02/27 04:00:32;;;;;;;;;;;;;;;5.79;43.77;101053.81;4444126;32;34845;-80
2022/02/27 04:03:00;;;;;;;;;;;;;;;5.30;44.81;101058.31;4444159;32;34793;-81
2022/02/27 04:05:27;;;;;;;;;;;;;;;5.47;44.62;101055.62;4444518;32;35368;-80
2022/02/27 04:07:55;;;;;;;;;;;;;;;5.33;44.92;101055.50;4444378;32;33137;-80
2022/02/27 04:10:23;;;;;;;;;;;;;;;5.45;44.81;101054.88;4431716;32;32651;-80
2022/02/27 04:12:50;;;;;;;;;;;;;;;5.36;44.23;101056.19;4431761;32;34799;-80
2022/02/27 04:15:18;;;;;;;;;;;;;;;5.69;43.78;101064.94;4444439;32;34897;-80
2022/02/27 04:17:45;;;;;;;;;;;;;;;5.19;44.69;101061.50;4444453;32;33469;-80
2022/02/27 04:20:13;;;;;;;;;;;;;;;5.14;44.81;101063.53;4444348;32;34846;-80
2022/02/27 04:22:41;;;;;;;;;;;;;;;5.17;44.60;101055.44;4444464;32;35921;-80
2022/02/27 04:25:09;;;;;;;;;;;;;;;5.33;44.62;101059.00;4444326;32;35363;-80
2022/02/27 04:27:36;;;;;;;;;;;;;;;5.29;44.97;101061.88;4443581;32;33481;-80
2022/02/27 04:30:04;;;;;;;;;;;;;;;5.10;44.77;101061.97;4444120;32;33362;-80
2022/02/27 04:32:32;;;;;;;;;;;;;;;5.39;44.57;101063.97;4443704;32;35443;-80
2022/02/27 04:35:00;;;;;;;;;;;;;;;5.47;44.00;101063.53;4444416;32;34689;-80
2022/02/27 04:37:28;;;;;;;;;;;;;;;5.07;45.24;101066.56;4445041;32;32966;-79
2022/02/27 04:39:56;;;;;;;;;;;;;;;5.51;43.80;101069.41;4443915;32;34054;-80
2022/02/27 04:42:23;;;;;;;;;;;;;;;5.38;44.17;101075.41;4444080;32;34449;-79
2022/02/27 04:44:50;;;;;;;;;;;;;;;5.45;44.19;101082.09;4429956;32;34349;-80
2022/02/27 04:47:18;;;;;;;;;;;;;;;5.36;43.87;101076.47;4431083;32;33468;-80
2022/02/27 04:49:48;;;;;;;;;;;;;;;5.37;43.86;101083.44;4446547;32;32959;-80
2022/02/27 04:52:16;;;;;;;;;;;;;;;5.20;44.04;101081.66;4452183;32;36063;-79
2022/02/27 04:54:44;;;;;;;;;;;;;;;5.13;44.61;101088.22;4441291;32;35355;-80
2022/02/27 04:57:11;;;;;;;;;;;;;;;5.23;44.48;101091.22;4437362;32;32482;-80
2022/02/27 04:59:38;;;;;;;;;;;;;;;5.48;43.92;101095.97;4435936;32;32674;-78
2022/02/27 05:02:06;;;;;;;;;;;;;;;5.20;44.42;101099.28;4424186;32;35127;-80
2022/02/27 05:04:36;;;;;;;;;;;;;;;5.35;43.59;101090.59;4431160;32;35473;-79
2022/02/27 05:07:04;;;;;;;;;;;;;;;5.08;43.91;101103.41;4438215;32;32482;-80
2022/02/27 05:09:32;;;;;;;;;;;;;;;5.45;43.73;101100.56;4451004;32;33661;-80
2022/02/27 05:11:59;;;;;;;;;;;;;;;5.37;44.30;101105.38;4433212;32;36075;-79
2022/02/27 05:14:27;;;;;;;;;;;;;;;5.57;43.14;101107.81;4438303;32;34953;-80
2022/02/27 05:16:54;;;;;;;;;;;;;;;5.24;44.22;101109.59;4443737;32;32946;-79
2022/02/27 05:19:22;;;;;;;;;;;;;;;5.43;43.66;101103.28;4443461;32;34216;-80
2022/02/27 05:21:49;;;;;;;;;;;;;;;5.43;43.64;101109.47;4443895;32;35761;-80
2022/02/27 05:24:17;;;;;;;;;;;;;;;5.35;43.78;101109.06;4443635;32;35091;-80
2022/02/27 05:26:45;;;;;;;;;;;;;;;5.46;43.98;101107.53;4430892;32;31922;-80
2022/02/27 05:29:12;;;;;;;;;;;;;;;5.24;43.77;101124.56;4443770;32;34546;-79
2022/02/27 05:31:40;;;;;;;;;;;;;;;5.34;43.25;101120.50;4443712;32;34885;-80
2022/02/27 05:34:09;;;;;;;;;;;;;;;5.16;44.04;101122.34;4431004;32;33883;-80
2022/02/27 05:36:37;;;;;;;;;;;;;;;5.23;44.06;101129.00;4443648;32;33401;-80
2022/02/27 05:39:05;;;;;;;;;;;;;;;5.36;43.78;101131.87;4443179;32;31813;-80
2022/02/27 05:41:32;;;;;;;;;;;;;;;5.07;44.05;101140.44;4430593;32;34493;-80
2022/02/27 05:44:00;;;;;;;;;;;;;;;5.58;43.29;101142.06;4430830;32;33156;-80
2022/02/27 05:46:27;;;;;;;;;;;;;;;5.53;43.01;101146.75;4430626;32;32849;-80
2022/02/27 05:48:55;;;;;;;;;;;;;;;5.55;42.88;101150.16;4429463;32;33476;-80
2022/02/27 05:51:23;;;;;;;;;;;;;;;5.62;42.92;101145.41;4430815;32;34873;-80
2022/02/27 05:53:51;;;;;;;;;;;;;;;5.34;43.78;101146.91;4443622;32;33961;-80
2022/02/27 05:56:19;;;;;;;;;;;;;;;5.40;43.49;101154.50;4430419;32;34718;-80
2022/02/27 05:58:47;;;;;;;;;;;;;;;5.53;42.97;101153.81;4430794;32;33335;-80
2022/02/27 06:01:15;;;;;;;;;;;;;;;5.56;42.50;101164.19;4430499;32;33912;-80
2022/02/27 06:03:43;;;;;;;;;;;;;;;5.71;42.65;101158.13;4443465;32;34831;-80
2022/02/27 06:06:10;;;;;;;;;;;;;;;5.75;42.51;101167.56;4443311;32;31627;-81
2022/02/27 06:08:37;;;;;;;;;;;;;;;5.83;43.37;101168.06;4443403;32;35351;-80
2022/02/27 06:11:05;;;;;;;;;;;;;;;5.61;43.21;101180.66;4443280;32;36046;-80
2022/02/27 06:13:32;;;;;;;;;;;;;;;5.87;42.72;101177.53;4443393;32;33891;-79
2022/02/27 06:16:00;;;;;;;;;;;;;;;5.71;42.55;101184.53;4443726;32;33934;-80
2022/02/27 06:18:27;;;;;;;;;;;;;;;5.76;43.10;101178.06;4430352;32;33088;-80
2022/02/27 06:20:55;;;;;;;;;;;;;;;5.73;42.72;101185.28;4429810;32;33890;-80
2022/02/27 06:23:22;;;;;;;;;;;;;;;5.97;42.25;101182.22;4430054;32;33009;-79
2022/02/27 06:25:50;;;;;;;;;;;;;;;5.44;42.89;101180.66;4443429;32;33037;-79
2022/02/27 06:28:17;;;;;;;;;;;;;;;5.59;43.98;101178.09;4442767;32;33056;-80
2022/02/27 06:30:45;;;;;;;;;;;;;;;5.79;42.17;101193.78;4429356;32;34335;-79
2022/02/27 06:33:12;;;;;;;;;;;;;;;5.87;42.13;101196.88;4443728;32;34022;-80
2022/02/27 06:35:39;;;;;;;;;;;;;;;6.00;42.08;101191.78;4443426;32;33690;-80
2022/02/27 06:38:07;;;;;;;;;;;;;;;6.40;40.80;101194.84;4443397;32;32268;-80
2022/02/27 06:40:34;;;;;;;;;;;;;;;6.32;41.14;101191.75;4443292;32;34956;-80
2022/02/27 06:43:05;;;;;;;;;;;;;;;6.49;41.11;101186.41;4443810;32;35370;-80
2022/02/27 06:45:35;;;;;;;;;;;;;;;6.28;41.68;101189.37;4442711;32;33431;-79
2022/02/27 06:48:03;;;;;;;;;;;;;;;6.40;40.66;101196.59;4455548;32;34305;-79
2022/02/27 06:50:31;;;;;;;;;;;;;;;6.37;41.34;101202.06;4442998;32;34747;-80
2022/02/27 06:52:58;;;;;;;;;;;;;;;5.93;41.24;101196.56;4441378;32;35003;-78
2022/02/27 06:55:30;;;;;;;;;;;;;;;6.26;41.49;101207.09;4428191;32;31704;-80
2022/02/27 06:57:58;;;;;;;;;;;;;;;6.20;40.97;101203.00;4442597;32;31992;-79
2022/02/27 07:00:25;;;;;;;;;;;;;;;6.13;40.59;101198.09;4428954;32;34878;-79
2022/02/27 07:02:54;;;;;;;;;;;;;;;6.49;40.18;101196.09;4442092;32;33666;-79
2022/02/27 07:05:29;;;;;;;;;;;;;;;6.50;41.04;101208.38;4443232;32;34105;-79
2022/02/27 07:07:56;;;;;;;;;;;;;;;6.47;40.31;101204.13;4442121;32;34522;-79
2022/02/27 07:10:24;;;;;;;;;;;;;;;6.43;40.18;101207.88;4442460;32;34461;-79
2022/02/27 07:12:52;;;;;;;;;;;;;;;6.72;40.15;101201.81;4442643;32;34348;-79
2022/02/27 07:15:19;;;;;;;;;;;;;;;6.61;39.51;101209.50;4435012;32;31020;-81
2022/02/27 07:17:47;;;;;;;;;;;;;;;6.64;38.70;101193.44;4442228;32;33103;-79
2022/02/27 07:20:16;;;;;;;;;;;;;;;6.37;40.20;101207.38;4442053;32;35605;-79
2022/02/27 07:22:43;;;;;;;;;;;;;;;6.50;40.01;101203.09;4441766;32;35367;-80
2022/02/27 07:25:15;;;;;;;;;;;;;;;6.64;39.44;101213.78;4434045;32;32981;-80
2022/02/27 07:27:43;;;;;;;;;;;;;;;6.41;39.90;101220.31;4442719;32;34767;-79
2022/02/27 07:30:10;;;;;;;;;;;;;;;6.46;40.20;101210.37;4443086;32;34748;-80
2022/02/27 07:32:38;;;;;;;;;;;;;;;6.61;40.20;101214.78;4443476;32;34672;-80
2022/02/27 07:35:06;;;;;;;;;;;;;;;6.82;40.05;101210.09;4442986;32;34057;-79
2022/02/27 07:37:37;;;;;;;;;;;;;;;6.98;38.75;101210.94;4442590;32;34646;-80
2022/02/27 07:40:07;;;;;;;;;;;;;;;6.82;39.93;101221.50;4442128;32;35539;-78
2022/02/27 07:42:35;;;;;;;;;;;;;;;6.91;38.67;101223.63;4442668;32;34737;-80
2022/02/27 07:45:03;;;;;;;;;;;;;;;7.05;39.75;101225.50;4442306;32;33835;-80
2022/02/27 07:47:31;;;;;;;;;;;;;;;6.86;39.12;101223.06;4442175;32;34311;-80
2022/02/27 07:49:59;;;;;;;;;;;;;;;6.89;39.03;101222.88;4441907;32;35362;-79
2022/02/27 07:52:26;;;;;;;;;;;;;;;6.84;39.06;101221.44;4442406;32;35032;-80
2022/02/27 07:54:55;;;;;;;;;;;;;;;7.01;38.52;101230.13;4429007;32;31719;-79
2022/02/27 07:57:22;;;;;;;;;;;;;;;6.89;39.45;101217.59;4441665;32;35191;-80
2022/02/27 07:59:50;;;;;;;;;;;;;;;7.17;38.47;101220.37;4441075;32;35386;-80
2022/02/27 08:02:18;;;;;;;;;;;;;;;7.23;38.18;101217.38;4441025;32;33367;-80
2022/02/27 08:04:46;;;;;;;;;;;;;;;7.33;39.53;101222.97;4442274;32;33470;-80
2022/02/27 08:07:14;;;;;;;;;;;;;;;7.42;37.94;101220.66;4441842;32;33987;-80
2022/02/27 08:09:41;;;;;;;;;;;;;;;7.40;38.13;101230.50;4441676;32;33500;-80
2022/02/27 08:12:09;;;;;;;;;;;;;;;7.64;37.36;101220.25;4442803;32;34059;-80
2022/02/27 08:14:37;;;;;;;;;;;;;;;7.68;38.13;101225.25;4443884;32;33061;-80
2022/02/27 08:17:04;;;;;;;;;;;;;;;7.80;37.86;101228.94;4430957;32;31990;-80
2022/02/27 08:19:33;;;;;;;;;;;;;;;7.84;36.50;101236.63;4444208;32;35241;-82
2022/02/27 08:22:00;;;;;;;;;;;;;;;7.72;38.69;101212.69;4443958;32;34970;-80
2022/02/27 08:24:27;;;;;;;;;;;;;;;7.42;38.58;101227.72;4431318;32;31700;-80
2022/02/27 08:26:56;;;;;;;;;;;;;;;7.60;37.41;101221.34;4443926;32;34145;-80
2022/02/27 08:29:24;;;;;;;;;;;;;;;7.82;37.00;101222.63;4443997;32;35588;-80
2022/02/27 08:31:52;;;;;;;;;;;;;;;7.68;37.83;101221.75;4443656;32;33381;-80
2022/02/27 08:34:20;;;;;;;;;;;;;;;7.75;36.92;101231.03;4444072;32;33367;-80
2022/02/27 08:36:47;;;;;;;;;;;;;;;8.05;36.47;101222.09;4443955;32;34225;-80
2022/02/27 08:39:15;;;;;;;;;;;;;;;7.68;37.45;101229.69;4444222;32;35042;-80
2022/02/27 08:41:43;;;;;;;;;;;;;;;8.15;36.47;101215.28;4431313;32;35843;-80
2022/02/27 08:44:10;;;;;;;;;;;;;;;7.90;36.57;101222.16;4444096;32;32691;-80
2022/02/27 08:46:40;;;;;;;;;;;;;;;8.07;35.58;101224.63;4456603;32;34897;-80
2022/02/27 08:49:08;;;;;;;;;;;;;;;8.34;35.43;101225.62;4430725;32;33585;-80
2022/02/27 08:51:35;;;;;;;;;;;;;;;7.82;36.12;101227.09;4431186;32;35879;-80
2022/02/27 08:54:03;;;;;;;;;;;;;;;8.16;37.11;101227.59;4456908;32;33040;-80
2022/02/27 08:56:30;;;;;;;;;;;;;;;8.38;36.54;101217.38;4444079;32;34461;-80
2022/02/27 08:58:58;;;;;;;;;;;;;;;8.03;36.30;101226.63;4444054;32;35006;-80
2022/02/27 09:01:25;;;;;;;;;;;;;;;7.82;36.73;101222.63;4443850;32;34556;-79
2022/02/27 09:06:58;;;;;;;;;;;;;;;8.60;34.27;101220.41;4397733;32;34353;-88
2022/02/27 09:09:26;;;;;;;;;;;;;;;8.32;34.56;101219.56;4399395;32;36039;-89
2022/02/27 09:11:53;;;;;;;;;;;;;;;8.77;36.85;101222.78;4372830;32;34039;-88
2022/02/27 09:14:24;;;;;;;;;;;;;;;9.17;33.77;101211.31;4385261;32;33422;-90
2022/02/27 09:16:52;;;;;;;;;;;;;;;9.21;35.52;101218.09;4385612;32;34797;-89
2022/02/27 09:19:19;;;;;;;;;;;;;;;9.44;34.23;101212.13;4384825;32;35017;-88
2022/02/27 09:21:49;;;;;;;;;;;;;;;9.58;32.52;101212.03;4372161;32;32804;-89
2022/02/27 09:24:16;;;;;;;;;;;;;;;8.91;33.04;101212.16;4371962;32;31714;-89
2022/02/27 09:26:45;;;;;;;;;;;;;;;8.91;34.53;101223.59;4397756;32;33745;-87
2022/02/27 09:29:12;;;;;;;;;;;;;;;9.05;33.15;101222.72;4384568;32;33515;-89
2022/02/27 09:31:40;;;;;;;;;;;;;;;8.81;34.85;101219.00;4398835;32;34239;-90
2022/02/27 09:34:08;;;;;;;;;;;;;;;8.60;33.68;101217.75;4372493;32;31917;-88
2022/02/27 09:36:38;;;;;;;;;;;;;;;8.58;33.93;101223.13;4372789;32;32965;-88
2022/02/27 09:39:08;;;;;;;;;;;;;;;8.72;33.66;101219.59;4384638;32;34915;-87
2022/02/27 09:41:36;;;;;;;;;;;;;;;8.70;33.51;101218.84;4384957;32;33790;-89
2022/02/27 09:44:08;;;;;;;;;;;;;;;8.47;34.07;101224.75;4384425;32;32316;-88
2022/02/27 09:46:36;;;;;;;;;;;;;;;8.67;34.37;101214.59;4372286;32;33505;-88
2022/02/27 09:49:04;;;;;;;;;;;;;;;8.79;33.44;101226.22;4369148;32;34535;-86
2022/02/27 09:51:33;;;;;;;;;;;;;;;8.90;33.14;101221.91;4383603;32;33477;-88
2022/02/27 09:54:01;;;;;;;;;;;;;;;8.76;33.45;101221.09;4384793;32;33478;-88
2022/02/27 09:56:33;;;;;;;;;;;;;;;8.85;33.99;101221.38;4384612;32;34571;-87
2022/02/27 09:59:00;;;;;;;;;;;;;;;9.14;32.84;101209.69;4384369;32;33460;-89
2022/02/27 10:01:37;;;;;;;;;;;;;;;8.99;33.84;101228.44;4385274;32;33492;-88
2022/02/27 10:04:21;;;;;;;;;;;;;;;9.02;33.62;101221.13;4382918;32;34571;-88
2022/02/27 10:06:51;;;;;;;;;;;;;;;8.89;33.86;101230.00;4384502;32;32148;-87
2022/02/27 10:09:23;;;;;;;;;;;;;;;9.39;33.55;101232.81;4371586;32;35253;-88
2022/02/27 10:12:10;;;;;;;;;;;;;;;9.25;33.02;101222.28;4385373;32;34358;-88
2022/02/27 10:14:38;;;;;;;;;;;;;;;9.26;33.33;101216.00;4398115;32;33206;-87
2022/02/27 10:17:11;;;;;;;;;;;;;;;9.49;33.04;101210.00;4385425;32;34133;-86
2022/02/27 10:19:41;;;;;;;;;;;;;;;9.30;32.92;101206.87;4396603;32;33921;-87
2022/02/27 10:22:09;;;;;;;;;;;;;;;9.45;32.98;101214.66;4384345;32;34633;-89
2022/02/27 10:24:37;;;;;;;;;;;;;;;9.76;32.42;101211.66;4383796;32;32430;-86
2022/02/27 10:27:08;;;;;;;;;;;;;;;9.98;31.75;101211.88;4398617;32;34129;-87
2022/02/27 10:29:36;;;;;;;;;;;;;;;9.63;32.38;101213.41;4382474;32;35388;-89
2022/02/27 10:32:07;;;;;;;;;;;;;;;9.70;33.27;101214.72;4384122;32;35005;-89
2022/02/27 10:34:36;;;;;;;;;;;;;;;9.90;32.26;101213.37;4395438;32;33755;-90
2022/02/27 10:37:09;;;;;;;;;;;;;;;9.95;32.28;101209.44;4384488;32;33999;-87
2022/02/27 10:39:45;;;;;;;;;;;;;;;9.72;32.08;101207.47;4383720;32;34490;-88
2022/02/27 10:42:18;;;;;;;;;;;;;;;10.02;31.80;101205.41;4384306;32;33494;-88
2022/02/27 10:44:57;;;;;;;;;;;;;;;10.34;31.58;101200.47;4396291;32;31789;-88
2022/02/27 10:47:26;;;;;;;;;;;;;;;10.68;31.12;101197.94;4383085;32;34431;-88
2022/02/27 10:49:55;;;;;;;;;;;;;;;10.63;33.53;101199.25;4383173;32;33633;-87
2022/02/27 10:52:24;;;;;;;;;;;;;;;10.72;30.70;101204.75;4398191;32;34612;-86
2022/02/27 10:54:53;;;;;;;;;;;;;;;10.79;30.87;101199.84;4396359;32;33444;-87
2022/02/27 10:57:30;;;;;;;;;;;;;;;10.90;32.13;101186.59;4398441;32;34153;-86
2022/02/27 11:00:19;;;;;;;;;;;;;;;11.01;30.18;101178.66;4396362;32;34881;-86
2022/02/27 11:02:54;;;;;;;;;;;;;;;10.75;31.23;101182.41;4396506;32;35006;-87
2022/02/27 11:05:24;;;;;;;;;;;;;;;10.68;30.60;101162.50;4396961;32;33853;-87
2022/02/27 11:08:03;;;;;;;;;;;;;;;10.86;30.42;101177.97;4383733;32;33323;-86
2022/02/27 11:10:37;;;;;;;;;;;;;;;10.29;31.05;101178.69;4384699;32;35335;-88
2022/02/27 11:13:09;;;;;;;;;;;;;;;10.63;31.17;101168.16;4383368;32;35659;-87
2022/02/27 11:15:37;;;;;;;;;;;;;;;10.73;29.87;101169.19;4383734;32;32595;-87
2022/02/27 11:18:06;;;;;;;;;;;;;;;10.48;29.76;101160.44;4383057;32;34639;-87
2022/02/27 11:20:33;;;;;;;;;;;;;;;10.03;30.40;101161.91;4383999;32;35369;-87
2022/02/27 11:23:03;;;;;;;;;;;;;;;10.27;30.62;101154.84;4382431;32;34623;-88
2022/02/27 11:25:31;;;;;;;;;;;;;;;10.53;30.31;101153.84;4383071;32;33410;-87
2022/02/27 11:28:09;;;;;;;;;;;;;;;10.62;29.95;101145.19;4383311;32;35342;-88
2022/02/27 11:30:37;;;;;;;;;;;;;;;10.85;29.66;101139.00;4384471;32;35873;-88
2022/02/27 11:33:06;;;;;;;;;;;;;;;11.02;30.15;101137.78;4383499;32;34850;-86
2022/02/27 11:35:51;;;;;;;;;;;;;;;11.26;28.92;101136.78;4384228;32;32036;-88
2022/02/27 11:38:29;;;;;;;;;;;;;;;11.15;29.06;101136.72;4396452;32;33606;-88
2022/02/27 11:40:57;;;;;;;;;;;;;;;11.23;28.60;101129.00;4383166;32;34272;-87
2022/02/27 11:43:41;;;;;;;;;;;;;;;11.26;28.91;101115.47;4398225;32;33899;-90
2022/02/27 11:46:10;;;;;;;;;;;;;;;11.72;28.49;101116.31;4383521;32;31780;-87
2022/02/27 11:49:02;;;;;;;;;;;;;;;11.57;27.84;101107.69;4386028;32;33332;-88
2022/02/27 11:51:35;;;;;;;;;;;;;;;11.31;29.47;101104.44;4387258;32;35075;-89
2022/02/27 11:54:09;;;;;;;;;;;;;;;11.39;28.95;101102.88;4387715;32;33280;-90
2022/02/27 11:56:38;;;;;;;;;;;;;;;11.34;28.37;101103.25;4387444;32;32698;-88
2022/02/27 11:59:08;;;;;;;;;;;;;;;11.06;28.71;101107.28;4400768;32;34356;-89
2022/02/27 12:01:48;;;;;;;;;;;;;;;11.35;28.35;101098.78;4386091;32;34860;-90
2022/02/27 12:04:20;;;;;;;;;;;;;;;11.60;28.94;101096.78;4400097;32;35053;-88
2022/02/27 12:07:00;;;;;;;;;;;;;;;12.12;27.66;101097.00;4384738;32;33937;-85
2022/02/27 12:09:52;;;;;;;;;;;;;;;12.09;27.24;101083.94;4398547;32;33363;-91
2022/02/27 12:12:31;;;;;;;;;;;;;;;12.36;27.51;101083.53;4384969;32;34474;-86
2022/02/27 12:15:26;;;;;;;;;;;;;;;12.14;27.38;101072.91;4385921;32;35520;-88
2022/02/27 12:18:03;;;;;;;;;;;;;;;11.88;28.76;101074.97;4395131;32;34705;-89
2022/02/27 12:20:44;;;;;;;;;;;;;;;12.70;28.76;101069.97;4385715;32;35348;-90
2022/02/27 12:23:30;;;;;;;;;;;;;;;12.94;28.56;101072.47;4384334;32;33238;-89
2022/02/27 12:26:02;;;;;;;;;;;;;;;13.31;27.33;101073.72;4395550;32;34423;-88
2022/02/27 12:28:47;;;;;;;;;;;;;;;13.42;25.78;101070.97;4395182;32;33912;-88
2022/02/27 12:31:16;;;;;;;;;;;;;;;13.11;27.83;101066.56;4397203;32;33485;-89
2022/02/27 12:33:44;;;;;;;;;;;;;;;13.55;26.51;101067.13;4398100;32;36406;-89
2022/02/27 12:36:26;;;;;;;;;;;;;;;13.51;25.29;101062.16;4385208;32;33809;-88
2022/02/27 12:38:56;;;;;;;;;;;;;;;13.29;26.53;101057.81;4398131;32;32721;-89
2022/02/27 12:41:32;;;;;;;;;;;;;;;13.21;26.78;101070.13;4396067;32;33876;-89
2022/02/27 12:44:03;;;;;;;;;;;;;;;13.55;27.49;101067.13;4398192;32;33964;-88
2022/02/27 12:46:37;;;;;;;;;;;;;;;13.52;26.23;101061.19;4384822;32;33817;-90
2022/02/27 12:52:00;;;;;;;;;;;;;;;13.78;26.34;101057.91;4398547;32;35850;-89
2022/02/27 12:54:34;;;;;;;;;;;;;;;13.75;26.74;101073.38;4384633;32;35032;-90
2022/02/27 12:57:05;;;;;;;;;;;;;;;13.57;26.57;101069.62;4384373;32;33485;-89
2022/02/27 12:59:36;;;;;;;;;;;;;;;14.17;26.34;101061.59;4383364;32;33417;-88
2022/02/27 13:02:05;;;;;;;;;;;;;;;15.27;25.73;101056.63;4383201;32;33467;-90